Date,TemperatureHighF,TemperatureAvgF,TemperatureLowF,DewpointHighF,DewpointAvgF,DewpointLowF,HumidityHigh,HumidityAvg,HumidityLow,PressureMaxIn,PressureMinIn,WindSpeedMaxMPH,WindSpeedAvgMPH,GustSpeedMaxMPH,PrecipitationSumIn
2013-1-1,17.6,6.6,-3.6,2.0,-4.0,-11.3,71,60,43,30.40,30.24,10,2,12,0.00
2013-1-2,24.6,17.5,6.4,17.2,6.6,-3.1,73,62,47,30.25,30.10,12,3,14,0.00
2013-1-3,27.3,19.3,9.3,20.0,10.0,-0.6,74,67,61,30.41,30.14,10,4,13,0.00
2013-1-4,31.6,20.0,9.3,19.9,10.7,-0.6,76,67,58,30.35,30.19,14,4,19,0.00
2013-1-5,36.5,24.0,6.8,28.7,15.9,-1.5,76,71,56,30.29,29.97,12,2,17,0.00
2013-1-6,29.5,19.7,9.9,17.3,9.8,1.6,74,65,53,30.39,30.00,7,0,13,0.00
2013-1-7,39.9,26.4,6.3,26.3,16.0,-2.0,75,65,53,30.37,30.09,11,2,18,0.00
2013-1-8,41.4,31.2,15.8,30.6,22.2,8.4,77,69,59,30.16,29.98,11,1,17,0.00
2013-1-9,41.2,33.3,22.8,30.1,24.3,16.6,77,70,59,30.54,30.02,16,2,21,0.00
2013-1-10,40.6,30.0,17.2,33.3,21.9,10.1,85,72,55,30.54,29.82,7,0,13,0.19
2013-1-11,50.7,41.6,34.0,44.1,37.0,30.0,90,84,74,29.85,29.59,13,1,20,0.03
2013-1-12,51.3,31.3,20.7,42.6,20.2,8.3,77,63,56,30.14,29.60,18,4,25,0.00
2013-1-13,20.5,14.8,9.9,8.5,1.3,-2.1,61,54,45,30.37,30.02,8,0,14,0.00
2013-1-14,29.3,15.5,6.8,10.6,3.4,-2.8,73,59,41,30.56,30.37,7,0,8,0.00
2013-1-15,32.4,20.4,8.1,13.3,7.1,-0.8,74,57,40,30.50,30.15,11,1,17,0.00
2013-1-16,39.7,29.5,18.7,30.4,18.4,5.8,80,63,51,30.17,29.86,12,2,18,0.00
2013-1-17,31.3,23.8,16.2,21.9,9.7,0.1,73,55,32,30.49,30.17,9,0,14,0.00
2013-1-18,49.5,35.6,19.4,32.1,24.0,10.1,74,63,50,30.47,29.88,17,2,27,0.00
2013-1-19,51.1,37.0,14.5,34.6,24.7,-2.6,74,61,42,30.20,29.75,14,2,27,0.00
2013-1-20,17.8,12.0,7.2,-1.4,-4.6,-7.8,54,45,35,30.46,30.20,9,0,21,0.00
2013-1-21,12.2,4.4,-0.9,-2.7,-13.6,-20.0,52,39,28,30.43,30.30,10,1,17,0.00
2013-1-22,11.8,4.4,-5.4,-5.7,-12.7,-17.6,55,42,29,30.51,30.40,7,0,11,0.00
2013-1-23,26.2,14.9,5.5,10.3,0.4,-12.1,66,52,37,30.57,30.17,12,1,21,0.00
2013-1-24,19.8,9.5,0.5,4.4,-7.4,-16.6,51,43,38,30.77,30.35,7,0,11,0.00
2013-1-25,32.9,22.2,12.6,14.9,6.8,-0.8,65,51,40,30.35,30.02,13,1,19,0.00
2013-1-26,27.5,18.3,4.8,9.9,1.6,-4.3,64,48,32,30.49,30.33,6,0,11,0.00
2013-1-27,34.9,30.5,26.2,30.0,20.2,9.6,82,66,48,30.36,29.85,11,0,17,0.03
2013-1-28,49.6,38.5,33.4,38.1,32.4,28.8,86,79,64,30.00,29.73,5,0,10,0.19
2013-1-29,55.6,41.9,34.2,50.3,37.2,28.3,88,83,76,29.79,29.55,8,0,11,0.58
2013-1-30,34.5,26.4,16.5,28.5,19.0,5.2,83,73,58,29.79,29.39,8,0,12,0.00
2013-1-31,16.9,7.9,-1.7,8.2,-4.3,-14.3,68,55,45,30.36,29.79,4,0,11,0.01
2013-2-1,9.1,1.2,-7.4,-0.9,-11.8,-18.7,64,50,39,30.49,30.17,7,0,12,0.00
2013-2-2,20.1,11.9,5.9,4.4,0.8,-3.6,69,61,46,30.22,30.08,4,0,9,0.00
2013-2-3,22.8,17.2,11.3,10.4,6.1,0.8,71,62,46,30.16,30.02,6,0,12,0.00
2013-2-4,24.3,16.8,4.5,12.6,6.4,-3.6,73,63,50,30.09,29.93,8,0,15,0.00
2013-2-5,33.6,22.2,4.5,23.5,12.9,-3.9,73,67,61,30.19,29.85,8,0,12,0.00
2013-2-6,38.3,22.5,1.8,30.1,12.7,-6.4,74,65,53,30.31,30.05,8,0,15,0.11
2013-2-7,37.2,34.1,29.3,29.4,26.6,22.1,78,74,71,30.18,29.96,11,0,18,0.27
2013-2-8,37.6,25.6,15.3,22.1,15.4,7.1,74,65,49,30.45,30.17,6,0,15,0.04
2013-2-9,32.2,26.8,19.8,23.5,18.4,11.9,75,70,66,30.44,30.07,16,1,21,0.00
2013-2-10,45.0,36.3,26.1,38.8,29.5,18.3,83,76,69,30.08,29.38,17,3,30,0.26
2013-2-11,35.4,29.9,24.4,27.3,20.0,13.7,76,66,61,30.13,29.47,19,5,28,0.00
2013-2-12,37.0,27.5,21.0,23.2,16.9,11.6,75,64,54,30.19,29.93,8,0,14,0.00
2013-2-13,40.5,29.1,16.7,30.3,20.4,9.0,75,70,60,29.93,29.66,5,0,8,0.00
2013-2-14,41.7,35.4,28.0,29.9,24.5,14.2,74,65,52,30.11,29.64,11,0,17,0.00
2013-2-15,31.1,21.7,13.5,14.1,4.9,0.2,57,48,31,30.35,30.10,6,0,13,0.00
2013-2-16,25.0,14.9,9.1,5.0,1.0,-2.9,67,54,41,30.34,30.22,10,0,15,0.00
2013-2-17,33.3,21.7,5.9,19.1,8.7,-3.3,66,57,47,30.27,29.89,12,1,19,0.00
2013-2-18,49.5,33.7,15.8,34.7,22.6,4.0,75,63,56,29.89,29.54,11,1,32,0.03
2013-2-19,16.3,10.1,4.1,4.2,-3.4,-9.0,63,53,46,30.39,29.79,14,1,23,0.00
2013-2-20,24.1,12.5,2.3,6.3,-1.8,-9.9,67,51,43,30.50,30.39,9,0,15,0.00
2013-2-21,26.4,19.0,9.9,18.0,9.2,0.2,73,65,56,30.48,29.99,16,2,28,0.00
2013-2-22,32.2,26.8,23.5,22.1,18.1,14.0,73,69,65,30.00,29.85,8,0,15,0.01
2013-2-23,28.8,21.9,10.0,15.7,11.5,0.8,70,64,54,30.08,29.96,10,2,14,0.01
2013-2-24,42.6,20.3,2.8,24.1,8.4,-5.3,70,60,41,30.20,30.07,2,0,4,0.03
2013-2-25,47.1,28.8,16.0,29.3,18.3,7.3,70,65,51,30.22,30.02,3,0,7,0.00
2013-2-26,35.2,33.0,28.6,24.6,22.6,20.6,75,65,59,30.02,29.71,16,3,25,0.00
2013-2-27,34.9,31.5,28.0,25.9,23.7,19.5,75,73,69,29.89,29.72,8,0,13,0.14
2013-2-28,36.7,33.4,30.6,25.6,23.0,19.7,73,65,58,30.18,29.89,11,0,15,0.02
2013-3-1,30.9,26.0,12.6,19.9,13.2,4.4,70,58,51,30.35,30.18,11,1,19,0.00
2013-3-2,32.9,17.7,6.1,11.6,3.8,-2.7,71,56,31,30.39,30.26,8,0,12,0.00
2013-3-3,37.4,20.1,4.6,14.6,3.2,-3.8,70,49,24,30.28,30.12,4,0,9,0.00
2013-3-4,32.5,27.4,22.8,21.1,14.7,6.3,68,59,47,30.16,30.01,14,1,21,0.00
2013-3-5,32.0,28.3,25.7,24.0,20.3,17.0,75,72,65,30.23,29.95,5,0,9,0.00
2013-3-6,32.7,24.2,8.8,19.5,14.2,-0.2,71,65,57,30.44,30.22,8,0,17,0.00
2013-3-7,39.7,18.5,1.0,24.4,7.6,-8.3,71,62,50,30.52,30.41,3,0,8,0.02
2013-3-8,42.3,28.0,10.8,26.8,17.3,2.8,71,64,52,30.51,30.27,6,0,12,0.00
2013-3-9,38.8,36.8,32.9,32.4,28.8,23.5,80,73,62,30.27,29.80,14,1,24,0.78
2013-3-10,40.5,36.9,34.2,35.5,30.5,25.9,85,78,71,29.82,29.61,9,1,17,0.44
2013-3-11,34.3,32.5,30.0,26.3,24.8,21.9,75,73,71,29.89,29.66,5,0,9,0.01
2013-3-12,34.7,28.5,24.1,25.9,17.8,13.5,75,64,53,30.16,29.89,11,1,20,0.00
2013-3-13,36.1,26.8,20.7,14.2,11.0,4.8,66,52,32,30.42,30.16,10,1,19,0.00
2013-3-14,39.9,27.7,20.1,29.7,18.4,11.6,75,68,54,30.42,30.13,5,0,9,0.03
2013-3-15,37.4,30.1,23.0,30.2,21.9,14.7,75,71,67,30.12,29.80,5,0,10,0.04
2013-3-16,36.9,31.0,25.9,25.9,21.3,14.6,75,67,56,30.23,29.83,9,1,14,0.00
2013-3-17,33.3,27.5,21.2,20.5,14.2,5.8,65,57,47,30.31,30.02,14,2,20,0.00
2013-3-18,32.9,26.4,18.0,25.4,16.8,4.7,75,67,53,30.03,29.67,11,1,19,0.02
2013-3-19,32.0,21.3,12.7,11.3,4.7,-0.4,61,49,34,30.21,29.90,12,2,21,0.08
2013-3-20,25.5,16.1,9.0,5.2,-0.7,-7.2,58,46,39,30.27,30.14,12,0,17,0.01
2013-3-21,32.4,17.9,5.0,10.8,3.2,-4.0,68,53,34,30.20,30.08,6,0,11,0.00
2013-3-22,37.4,23.6,9.3,18.5,10.4,0.0,70,58,36,30.17,30.07,5,0,8,0.00
2013-3-23,44.4,31.7,18.1,23.6,17.8,8.7,73,57,34,30.20,30.08,5,0,8,0.00
2013-3-24,34.2,31.2,27.7,24.2,21.7,18.3,75,68,55,30.11,29.87,10,1,20,0.04
2013-3-25,36.9,32.5,27.7,22.1,19.3,13.7,72,58,51,30.20,29.91,12,1,25,0.02
2013-3-26,44.6,33.9,23.2,23.8,19.4,13.9,69,55,43,30.35,30.20,10,0,16,3.72
2013-3-27,47.8,35.4,27.1,26.2,20.8,15.0,74,57,32,30.40,30.33,8,0,11,0.00
2013-3-28,52.2,36.2,20.7,29.0,21.2,12.6,72,57,29,30.43,30.31,4,0,7,0.00
2013-3-29,57.9,41.3,25.7,33.7,26.1,16.6,75,57,25,30.39,30.24,2,0,4,0.00
2013-3-30,53.6,44.5,34.2,40.6,33.9,23.8,77,66,58,30.26,29.90,14,1,20,0.00
2013-3-31,47.8,39.3,30.9,36.3,29.1,19.1,79,67,51,30.04,29.84,12,1,18,0.00
2013-4-1,39.4,31.4,25.2,19.9,14.5,8.4,63,50,33,30.30,30.04,16,1,21,0.00
2013-4-2,43.2,31.9,20.3,23.5,14.3,8.0,74,50,29,30.42,30.30,9,0,20,0.00
2013-4-3,48.7,34.0,19.4,21.1,15.0,9.3,74,49,24,30.52,30.33,7,0,11,0.00
2013-4-4,60.4,42.2,23.4,38.5,26.8,15.7,75,56,34,30.33,30.01,13,1,17,0.00
2013-4-5,55.9,41.5,26.8,29.7,23.9,18.2,77,52,26,30.29,30.08,9,0,14,0.00
2013-4-6,63.0,49.2,37.8,47.5,33.8,16.9,78,56,41,30.09,29.57,16,2,21,0.01
2013-4-7,62.1,47.9,39.6,40.1,35.8,32.0,76,64,40,30.01,29.72,8,0,12,0.00
2013-4-8,70.2,53.2,40.6,53.0,43.4,34.6,80,70,54,29.97,29.67,8,0,17,0.34
2013-4-9,50.7,43.8,39.7,43.1,38.1,34.4,83,80,75,30.01,29.86,12,2,27,0.89
2013-4-10,39.7,37.0,34.5,34.4,31.0,27.6,83,79,73,30.14,29.71,17,3,25,1.02
2013-4-11,42.6,39.6,37.2,37.3,34.5,31.0,84,82,78,29.84,29.59,16,2,24,0.25
2013-4-12,42.8,37.5,35.2,35.4,29.8,25.0,84,74,65,29.91,29.60,4,0,9,0.02
2013-4-13,45.9,37.1,33.1,29.3,25.8,23.3,72,64,52,30.04,29.90,8,1,16,0.00
2013-4-14,69.3,47.0,33.4,51.7,36.7,24.8,84,68,52,30.03,29.53,17,2,26,0.36
2013-4-15,56.1,45.5,39.6,45.8,37.8,32.0,88,75,54,30.06,29.63,9,0,14,0.10
2013-4-16,54.3,43.9,32.0,36.4,30.9,25.0,76,61,41,30.30,30.05,10,0,18,0.00
2013-4-17,47.7,42.9,39.4,38.3,35.3,32.6,83,75,57,30.31,29.84,17,1,27,2.03
2013-4-18,59.7,46.3,35.4,54.5,40.7,28.5,85,81,73,29.86,29.33,18,3,27,0.41
2013-4-19,40.5,36.2,32.7,28.9,26.6,23.3,77,68,57,30.03,29.51,13,3,22,0.00
2013-4-20,48.7,37.9,28.0,29.0,21.3,10.1,79,54,24,30.41,30.03,8,0,16,0.03
2013-4-21,56.5,46.5,36.7,39.9,31.8,22.1,65,57,47,30.49,30.22,17,3,26,0.00
2013-4-22,67.5,57.2,47.3,47.6,39.6,35.9,77,53,35,30.25,29.98,15,2,23,0.00
2013-4-23,53.6,42.6,37.4,47.4,35.0,28.8,88,75,64,30.09,29.97,8,0,19,0.01
2013-4-24,54.7,44.0,31.6,36.8,27.2,18.7,77,53,31,30.14,30.04,82,1,82,9.51
2013-4-25,54.0,43.7,36.3,36.1,29.6,21.4,77,59,31,30.32,30.07,12,1,14,0.00
2013-4-26,69.3,55.8,37.9,49.5,40.3,26.3,71,57,43,30.30,30.15,17,4,27,0.00
2013-4-27,65.8,55.8,41.9,49.3,44.8,39.5,91,68,49,30.27,30.04,8,0,13,0.00
2013-4-28,73.8,56.6,37.8,51.2,44.0,35.1,91,66,36,30.04,29.79,6,0,11,0.00
2013-4-29,77.9,63.4,49.6,60.9,54.4,45.8,88,73,51,29.90,29.65,11,1,16,0.30
2013-4-30,87.4,75.1,61.2,60.8,52.9,14.3,94,52,11,29.91,29.64,16,4,24,0.11
2013-5-1,80.4,60.2,45.5,57.3,47.1,1.2,86,65,12,30.28,29.90,14,1,23,0.00
2013-5-2,47.7,41.4,35.6,40.1,36.8,-5.6,96,84,12,30.38,30.27,14,1,19,0.21
2013-5-3,45.3,38.6,34.3,44.3,36.9,32.0,98,93,89,30.31,30.00,13,1,17,1.33
2013-5-4,71.4,59.0,45.3,59.1,52.2,44.5,99,80,57,30.08,29.97,8,0,17,0.01
2013-5-5,77.2,61.7,45.3,54.9,49.2,14.3,99,68,12,30.10,29.99,7,0,11,0.00
2013-5-6,80.1,62.3,45.3,54.7,48.7,44.1,99,67,31,30.12,29.99,6,0,8,11.47
2013-5-7,81.3,62.4,45.5,56.0,48.6,38.0,99,67,24,30.11,29.98,6,0,8,0.00
2013-5-8,83.7,65.2,46.6,58.6,51.4,43.5,99,67,28,30.08,29.96,5,0,8,0.00
2013-5-9,68.5,61.3,53.1,62.8,58.9,52.4,99,92,73,29.99,29.85,10,0,16,0.50
2013-5-10,60.8,51.8,45.5,52.5,48.0,44.7,99,87,70,30.04,29.89,9,0,19,0.01
2013-5-11,57.4,50.8,40.6,51.4,36.1,19.1,99,62,28,30.17,29.89,16,2,27,0.01
2013-5-12,58.3,46.8,36.7,35.0,28.7,22.2,84,52,29,30.22,30.12,10,1,19,0.00
2013-5-13,68.9,53.4,31.6,45.7,36.2,25.9,99,59,24,30.22,29.89,10,0,14,0.00
2013-5-14,92.7,74.4,58.6,67.7,55.1,43.6,81,54,26,29.89,29.55,14,1,24,0.00
2013-5-15,82.0,70.0,57.6,62.1,49.9,39.1,81,51,25,29.91,29.64,8,0,13,0.00
2013-5-16,84.6,68.4,51.3,57.1,51.3,40.7,99,61,24,29.97,29.85,8,0,11,0.00
2013-5-17,78.3,67.4,58.3,61.9,53.0,45.3,70,60,53,30.06,29.93,10,0,17,0.00
2013-5-18,84.2,70.1,56.5,66.8,59.3,51.1,92,70,49,30.06,29.90,10,0,14,0.00
2013-5-19,83.5,73.2,61.5,71.2,64.4,54.8,98,76,44,29.94,29.60,17,1,30,0.23
2013-5-20,82.8,72.1,62.6,66.1,63.0,60.3,99,75,51,29.78,29.61,14,2,22,0.21
2013-5-21,75.0,67.8,59.4,64.0,59.9,45.1,97,77,60,30.11,29.61,9,1,17,12.60
2013-5-22,71.6,60.9,55.0,61.7,57.9,54.2,99,91,58,29.80,29.66,3,0,7,0.12
2013-5-23,58.8,57.3,55.8,58.5,57.0,55.3,99,99,99,29.85,29.79,13,0,21,0.03
2013-9-25,80.1,65.2,41.3,59.6,55.2,31.5,99,73,38,30.00,29.91,2,0,4,0.03
2013-9-26,82.2,63.9,46.2,66.2,56.7,45.4,99,80,56,30.07,29.97,8,0,14,0.00
2013-9-27,83.3,66.4,50.7,65.3,56.7,50.4,99,74,44,30.14,29.99,5,0,15,0.00
2013-9-28,79.9,64.3,52.7,68.7,60.1,52.2,99,87,67,30.05,29.84,11,0,18,0.33
2013-9-29,76.1,56.6,45.1,59.1,50.4,44.3,99,83,44,30.12,30.00,1,0,3,0.01
2013-9-30,76.1,60.2,43.5,57.9,51.3,43.0,99,76,44,30.02,29.80,9,0,17,0.00
2013-10-1,83.8,66.3,55.0,67.4,61.5,54.2,99,86,56,30.02,29.85,4,0,12,0.00
2013-10-2,84.2,63.2,45.7,60.9,52.6,42.9,99,75,30,30.14,29.95,5,0,12,0.02
2013-10-3,77.5,66.2,55.6,74.2,65.2,55.3,99,96,88,29.95,29.80,4,0,9,0.27
2013-10-4,71.8,67.7,64.2,69.2,66.7,63.3,99,97,86,30.00,29.86,8,0,17,0.45
2013-10-5,74.1,66.5,50.4,70.8,63.4,45.1,99,90,71,29.89,29.76,7,0,10,0.03
2013-10-6,59.0,46.9,40.5,48.7,44.2,40.2,99,91,66,29.85,29.74,4,0,7,0.10
2013-10-7,73.6,55.4,44.1,56.6,50.0,43.5,99,85,48,30.12,29.82,2,0,4,0.00
2013-10-8,78.8,58.6,40.5,58.4,49.3,40.2,99,76,36,30.17,30.05,8,0,14,0.00
2013-10-9,77.0,57.9,44.8,59.8,51.3,43.8,99,82,46,30.23,30.11,3,0,8,0.00
2013-10-10,77.4,56.9,40.3,60.7,51.7,40.0,99,85,52,30.20,30.02,4,0,10,0.00
2013-10-11,77.5,63.2,46.2,64.7,56.4,45.4,99,81,56,30.05,29.85,12,1,20,0.00
2013-10-12,70.3,60.7,43.0,62.4,52.7,42.5,99,77,48,30.25,29.86,7,0,12,0.02
2013-10-13,68.5,48.2,36.0,50.3,40.8,30.7,99,80,30,30.47,30.25,8,0,17,0.00
2013-10-14,66.2,49.0,31.3,50.6,42.4,31.0,99,80,53,30.48,30.08,11,0,21,0.00
2013-10-15,62.8,55.0,51.1,60.4,51.5,46.8,99,88,75,30.09,29.78,10,1,14,0.17
2013-10-16,52.3,50.3,48.6,50.8,49.2,48.3,99,96,91,30.00,29.84,6,0,13,0.00
2013-10-17,60.8,48.4,38.5,50.9,45.5,38.2,99,91,59,29.98,29.83,2,0,6,0.07
2013-10-18,51.8,45.5,38.5,46.5,42.0,38.2,99,88,64,30.00,29.87,7,0,11,0.00
2013-10-19,54.5,42.8,34.5,44.5,39.9,33.8,99,90,64,29.98,29.80,8,0,12,0.06
2013-10-20,53.1,42.4,31.1,51.1,40.8,30.7,99,94,79,29.90,29.72,8,0,11,0.02
2013-10-21,48.7,39.8,30.0,45.6,32.5,26.7,97,76,52,30.05,29.84,9,0,13,0.00
2013-10-22,45.9,34.1,25.2,36.4,30.1,24.7,99,87,61,30.06,29.96,1,0,4,0.00
2013-10-23,46.8,36.3,27.0,37.2,30.2,26.0,99,80,56,30.11,30.04,8,0,11,0.00
2013-10-24,46.4,35.6,24.8,30.2,26.8,23.5,95,71,52,30.41,30.10,4,0,11,0.00
2013-10-25,54.7,39.3,23.5,37.8,30.1,22.9,99,73,43,30.44,29.99,9,1,17,0.00
2013-10-26,54.5,44.9,32.7,40.2,34.2,29.7,96,68,45,30.17,29.88,10,0,19,0.00
2013-10-27,57.6,39.5,24.8,37.4,32.5,24.3,99,79,45,30.15,29.92,13,1,15,0.00
2013-10-28,50.0,41.7,31.8,40.0,35.4,29.9,95,79,68,30.42,30.08,10,0,20,0.00
2013-10-29,61.7,48.4,38.3,46.4,39.5,32.6,86,72,53,30.42,30.12,11,0,17,0.00
2013-10-30,58.5,52.9,50.4,58.2,51.2,44.1,99,94,74,30.12,29.71,12,0,20,0.09
2013-10-31,62.6,53.8,43.0,61.8,52.9,40.7,99,97,90,29.71,29.40,7,0,10,0.12
2013-11-1,49.8,44.7,42.4,44.8,41.9,40.5,93,90,82,29.66,29.46,4,0,9,0.00
2013-11-5,56.3,52.5,47.7,55.5,51.3,44.4,99,96,82,30.25,29.65,14,2,24,0.52
2013-11-6,57.0,43.3,32.9,56.7,37.9,24.8,99,82,52,30.28,29.74,11,1,20,0.11
2013-11-7,44.8,35.8,28.8,34.5,30.7,25.9,90,82,67,30.32,30.25,8,0,12,0.00
2013-11-8,50.4,38.7,23.7,38.0,30.8,23.4,99,75,53,30.35,29.79,22,2,29,0.01
2013-11-9,55.8,47.6,38.5,42.9,38.4,28.8,83,70,58,30.23,29.79,10,0,23,0.00
2013-11-10,51.1,41.5,31.8,36.3,32.1,26.9,85,70,53,30.41,30.19,8,0,14,0.00
2013-11-11,46.2,33.8,18.5,37.0,27.1,12.8,98,77,63,30.69,30.10,11,0,14,0.08
2013-11-12,32.5,21.9,14.7,18.5,13.3,9.2,86,70,51,30.85,30.66,4,0,8,0.00
2013-11-13,44.6,32.7,17.4,22.8,18.0,10.9,85,56,38,30.66,30.12,10,2,18,0.00
2013-11-14,49.8,41.4,34.7,35.1,28.4,19.7,82,60,50,30.13,29.92,9,1,14,0.00
2013-11-15,59.0,43.8,28.6,41.9,34.7,27.3,96,72,52,29.99,29.87,4,0,11,0.00
2013-11-16,61.2,51.4,38.5,57.9,49.3,35.1,99,93,82,29.87,29.41,19,3,30,0.09
2013-11-17,58.5,49.7,39.9,57.0,47.2,35.3,99,91,81,29.85,29.25,9,0,16,0.78
2013-11-18,44.2,35.5,25.5,35.8,28.3,22.7,92,75,57,30.34,29.85,9,0,19,0.00
2013-11-19,45.1,32.9,21.4,30.8,26.4,20.0,96,78,56,30.40,30.23,6,0,12,0.00
2013-11-20,39.7,37.5,36.1,38.5,32.6,29.0,99,83,72,30.24,30.08,12,0,24,0.04
2013-11-21,43.2,40.4,38.3,40.2,38.6,37.2,99,93,85,30.34,30.11,4,0,7,0.00
2013-11-22,39.4,30.5,23.2,37.4,23.9,13.2,96,77,56,30.59,30.34,9,0,15,0.02
2013-11-23,23.9,17.8,9.9,15.7,5.5,-1.1,77,59,43,30.84,30.54,17,1,24,0.00
2013-11-24,28.6,18.9,7.3,10.8,4.6,-0.9,85,56,29,30.82,30.35,14,1,24,0.00
2013-11-25,32.4,28.4,23.5,28.1,22.3,9.5,95,79,50,30.35,30.10,11,1,18,0.00
2013-11-26,34.0,25.3,9.5,28.2,15.1,-0.6,86,66,39,30.36,30.08,6,0,12,0.02
2013-11-27,29.7,16.6,3.6,14.2,6.1,-2.6,81,63,46,30.43,30.25,7,0,12,0.00
2013-11-28,32.9,20.5,9.1,18.6,11.6,4.2,85,69,52,30.60,30.17,8,0,11,0.00
2013-11-29,34.3,20.1,2.5,23.5,11.8,-2.7,81,70,57,30.70,30.34,3,0,9,0.00
2013-11-30,46.2,30.5,18.9,34.4,25.2,14.9,99,81,63,30.35,30.06,6,0,11,0.01
2013-12-1,44.1,31.1,21.9,32.5,26.8,20.5,97,85,65,30.22,30.01,0,0,2,0.00
2013-12-2,40.5,33.8,23.4,35.4,30.7,21.9,95,88,78,30.01,29.73,3,0,9,0.01
2013-12-3,40.5,38.3,35.6,40.2,37.8,33.7,99,98,92,29.74,29.64,3,0,8,0.12
2013-12-4,51.1,40.6,29.5,50.6,39.9,26.6,99,97,89,29.79,29.46,12,1,21,0.03
2013-12-5,29.7,19.8,12.4,26.8,10.3,2.4,89,66,56,30.42,29.79,10,1,24,0.00
2013-12-6,18.3,10.8,6.6,2.6,-0.7,-3.9,68,59,46,30.69,30.39,11,0,18,0.00
2013-12-7,16.5,7.5,-0.4,0.6,-3.9,-9.5,69,58,43,30.83,30.68,4,0,8,0.00
2013-12-8,18.9,15.9,10.4,14.7,7.4,-1.4,84,69,53,30.69,30.04,11,0,14,0.00
2013-12-9,17.4,5.8,-11.4,13.2,-2.4,-18.2,85,67,48,30.34,30.03,10,1,17,0.00
2013-12-10,20.5,10.9,-11.9,10.4,0.3,-18.8,80,62,44,30.33,30.00,8,0,15,0.00
2013-12-11,16.3,7.1,-7.8,12.6,-3.7,-16.6,85,60,33,30.68,30.31,9,0,13,0.00
2013-12-12,21.7,9.7,-2.6,8.4,-0.4,-11.5,82,62,51,30.62,30.26,5,0,11,0.00
2013-12-13,26.1,17.8,7.2,18.5,10.9,1.8,84,74,62,30.26,30.13,8,1,17,0.00
2013-12-14,27.0,22.0,16.0,17.5,15.3,6.5,84,75,65,30.20,30.08,8,1,16,0.00
2013-12-15,18.3,10.6,5.4,6.5,-0.8,-4.2,71,59,48,30.21,30.08,4,0,11,0.00
2013-12-16,20.5,12.4,6.8,17.1,3.5,-7.5,87,67,48,30.22,30.07,2,0,5,0.00
2013-12-17,39.2,25.4,16.5,29.2,17.0,9.4,87,71,50,30.21,30.02,9,0,17,0.07
2013-12-18,40.8,24.8,8.8,26.6,15.8,3.7,87,70,40,30.22,29.81,8,0,19,0.00
2013-12-19,34.0,26.2,18.0,29.0,21.6,14.1,95,83,67,30.00,29.85,10,0,19,0.00
2013-12-20,28.9,24.8,23.2,26.6,21.7,19.5,94,88,83,29.95,29.86,8,0,16,0.00
2013-12-21,28.4,26.4,24.3,26.9,23.9,22.3,95,90,84,29.94,29.77,8,0,15,0.00
2013-12-22,28.9,25.1,16.5,24.9,21.0,10.8,94,84,74,30.26,29.77,7,0,13,0.00
2013-12-23,16.2,-0.2,-11.4,10.8,-8.8,-19.0,80,63,52,30.62,30.25,8,0,12,0.00
2013-12-24,17.4,-2.5,-19.1,5.4,-12.1,-27.2,79,59,33,30.69,30.33,4,0,10,0.00
2013-12-25,24.6,19.4,10.6,20.4,14.6,5.6,88,81,66,30.33,30.17,5,0,11,0.00
2013-12-26,31.8,22.6,10.9,22.8,16.6,4.1,88,77,68,30.27,30.16,4,0,10,0.01
2013-12-27,39.0,25.2,8.2,30.0,19.4,3.4,90,79,65,30.33,30.07,6,0,11,0.03
2013-12-28,48.6,35.1,17.8,34.8,27.9,15.1,96,76,58,30.11,29.80,7,0,14,0.06
2013-12-29,37.4,17.9,-4.5,32.1,8.9,-17.2,94,67,45,30.40,29.80,6,1,15,0.00
2013-12-30,6.1,-3.1,-12.8,-3.3,-13.1,-20.0,72,58,33,30.45,30.29,0,0,1,0.00
2013-12-31,10.6,0.9,-11.6,1.8,-7.0,-18.5,73,66,60,30.44,30.31,2,0,5,0.00
2014-1-1,10.9,7.4,2.7,-1.5,-4.3,-7.6,68,57,51,30.44,30.36,8,0,15,0.00
2014-1-2,15.4,4.9,-12.3,0.6,-6.4,-19.7,69,57,47,30.58,30.35,6,0,12,0.00